Time;durP1;ratioP1;P1;durP2;ratioP2;P2;SDS_P1;SDS_P2;PMS_P1;PMS_P2;Temp;Humidity;BMP_temperature;BMP_pressure;BME280_temperature;BME280_humidity;BME280_pressure;Samples;Min_cycle;Max_cycle;Signal;HPM_P1;HPM_P2
2021/05/24 00:00:53;;;;;;;6.00;2.53;;;11.60;84.90;;;;;;5129378;27;20091;-59
2021/05/24 00:03:19;;;;;;;4.37;2.50;;;11.60;84.60;;;;;;5128971;27;20039;-61
2021/05/24 00:05:44;;;;;;;5.60;2.50;;;11.60;85.90;;;;;;5129313;27;20039;-61
2021/05/24 00:08:10;;;;;;;4.50;2.20;;;11.50;86.20;;;;;;5129416;27;20768;-61
2021/05/24 00:10:38;;;;;;;7.20;2.20;;;11.50;86.30;;;;;;5129321;27;20046;-61
2021/05/24 00:13:07;;;;;;;5.07;2.50;;;11.50;87.70;;;;;;5128828;27;20066;-60
2021/05/24 00:15:34;;;;;;;6.23;3.10;;;11.40;88.70;;;;;;5129173;27;20308;-61
2021/05/24 00:18:01;;;;;;;6.30;2.50;;;11.50;89.20;;;;;;5129033;27;20361;-61
2021/05/24 00:20:30;;;;;;;5.67;2.50;;;11.50;90.10;;;;;;5129625;27;20403;-61
2021/05/24 00:22:56;;;;;;;7.70;2.50;;;11.40;90.70;;;;;;5129527;27;20054;-61
2021/05/24 00:25:23;;;;;;;4.93;2.17;;;11.40;90.70;;;;;;5129651;27;20763;-61
2021/05/24 00:27:49;;;;;;;4.00;2.50;;;11.30;91.60;;;;;;5129234;27;20299;-61
2021/05/24 00:30:15;;;;;;;6.67;2.53;;;11.30;91.60;;;;;;5128787;27;20361;-61
2021/05/24 00:32:41;;;;;;;5.40;2.53;;;11.30;92.30;;;;;;5129442;27;20330;-61
2021/05/24 00:35:08;;;;;;;5.70;2.30;;;11.30;91.40;;;;;;5129814;27;20296;-61
2021/05/24 00:37:34;;;;;;;12.17;2.57;;;11.30;91.10;;;;;;5129429;28;20096;-61
2021/05/24 00:40:00;;;;;;;6.33;2.33;;;11.30;91.80;;;;;;5128644;28;20304;-61
2021/05/24 00:42:27;;;;;;;4.43;2.13;;;11.30;91.20;;;;;;5129377;28;20050;-61
2021/05/24 00:44:53;;;;;;;4.37;2.20;;;11.30;91.30;;;;;;5130483;28;20877;-60
2021/05/24 00:47:19;;;;;;;6.67;2.43;;;11.30;91.80;;;;;;5133060;27;20356;-61
2021/05/24 00:49:45;;;;;;;4.87;2.80;;;11.30;90.90;;;;;;5133645;27;20054;-61
2021/05/24 00:52:12;;;;;;;5.53;2.20;;;11.30;90.50;;;;;;5133269;27;20355;-61
2021/05/24 00:54:38;;;;;;;8.47;2.40;;;11.30;89.80;;;;;;5133313;27;20039;-61
2021/05/24 00:57:05;;;;;;;7.37;2.20;;;11.30;90.10;;;;;;5133266;27;20316;-60
2021/05/24 00:59:32;;;;;;;3.87;2.00;;;11.30;89.60;;;;;;5133338;27;20317;-61
2021/05/24 01:01:57;;;;;;;9.27;2.53;;;11.50;88.20;;;;;;5133554;27;20308;-61
2021/05/24 01:04:23;;;;;;;6.47;2.30;;;11.30;87.90;;;;;;5132860;27;20369;-60
2021/05/24 01:06:50;;;;;;;5.57;2.10;;;11.50;87.10;;;;;;5132508;27;20039;-60
2021/05/24 01:09:17;;;;;;;6.17;2.23;;;11.40;85.00;;;;;;5133051;27;20734;-61
2021/05/24 01:11:43;;;;;;;4.57;1.90;;;11.60;85.40;;;;;;5132613;27;20315;-61
2021/05/24 01:14:09;;;;;;;5.60;2.10;;;11.40;85.70;;;;;;5132837;27;20344;-62
2021/05/24 01:16:35;;;;;;;4.00;2.30;;;11.40;86.00;;;;;;5131989;27;20413;-61
2021/05/24 01:19:01;;;;;;;6.10;2.10;;;11.40;86.40;;;;;;5132692;27;20055;-61
2021/05/24 01:21:27;;;;;;;8.70;2.10;;;11.40;86.10;;;;;;5132538;27;20293;-61
2021/05/24 01:23:53;;;;;;;8.30;2.27;;;11.50;84.00;;;;;;5132714;27;20047;-60
2021/05/24 01:26:20;;;;;;;4.90;2.17;;;11.50;83.80;;;;;;5132049;27;20100;-62
2021/05/24 01:28:47;;;;;;;3.67;1.90;;;11.50;83.60;;;;;;5132356;27;20051;-61
2021/05/24 01:31:14;;;;;;;7.47;3.30;;;11.50;82.80;;;;;;5132309;27;20315;-61
2021/05/24 01:33:39;;;;;;;8.90;2.10;;;11.50;83.30;;;;;;5131737;27;20685;-61
2021/05/24 01:36:11;;;;;;;4.03;2.03;;;11.50;82.40;;;;;;5131817;27;20300;-61
2021/05/24 01:38:38;;;;;;;4.77;2.10;;;11.50;82.90;;;;;;5131735;27;20122;-61
2021/05/24 01:41:06;;;;;;;5.63;1.90;;;11.60;81.30;;;;;;5131747;27;20304;-61
2021/05/24 01:43:32;;;;;;;6.30;3.37;;;11.60;81.80;;;;;;5132017;27;20320;-61
2021/05/24 01:45:58;;;;;;;4.30;1.73;;;11.60;81.50;;;;;;5131707;27;20305;-61
2021/05/24 01:48:24;;;;;;;4.93;2.00;;;11.60;80.70;;;;;;5131787;27;20292;-61
2021/05/24 01:50:51;;;;;;;6.10;2.20;;;11.60;80.40;;;;;;5131518;27;20312;-61
2021/05/24 01:53:18;;;;;;;4.63;1.83;;;11.60;80.40;;;;;;5131796;27;20795;-61
2021/05/24 01:55:43;;;;;;;4.27;2.03;;;11.60;81.10;;;;;;5131412;27;20349;-60
2021/05/24 01:58:09;;;;;;;5.03;2.13;;;11.70;80.50;;;;;;5130590;27;20297;-60
2021/05/24 02:00:36;;;;;;;5.03;2.40;;;11.60;81.30;;;;;;5131203;27;20229;-61
2021/05/24 02:03:02;;;;;;;5.50;1.70;;;11.70;80.70;;;;;;5131419;27;20039;-61
2021/05/24 02:05:28;;;;;;;3.00;1.30;;;11.70;80.00;;;;;;5136483;27;20293;-60
2021/05/24 02:07:56;;;;;;;3.83;1.70;;;11.70;79.30;;;;;;5137003;27;20372;-59
2021/05/24 02:10:25;;;;;;;4.57;1.67;;;11.70;79.70;;;;;;5114871;27;20366;-61
2021/05/24 02:12:51;;;;;;;3.97;1.87;;;11.70;79.60;;;;;;5131687;27;20297;-61
2021/05/24 02:15:22;;;;;;;3.00;1.40;;;11.70;79.20;;;;;;5131939;27;20399;-61
2021/05/24 02:17:51;;;;;;;3.60;2.10;;;11.70;79.10;;;;;;5109364;28;20309;-60
2021/05/24 02:20:22;;;;;;;5.03;1.67;;;11.70;78.80;;;;;;5110767;28;20366;-61
2021/05/24 02:22:48;;;;;;;8.40;4.90;;;11.80;78.60;;;;;;5110938;28;20336;-61
2021/05/24 02:25:14;;;;;;;7.30;2.27;;;11.80;78.40;;;;;;5110384;28;20829;-61
2021/05/24 02:27:40;;;;;;;5.67;2.07;;;11.80;78.60;;;;;;5111516;28;20399;-61
2021/05/24 02:30:09;;;;;;;5.87;2.23;;;11.80;78.50;;;;;;5112303;27;20837;-61
2021/05/24 02:32:36;;;;;;;5.77;1.83;;;11.80;78.90;;;;;;5111501;28;20058;-60
2021/05/24 02:35:03;;;;;;;6.87;1.40;;;11.80;79.10;;;;;;5111098;28;20301;-61
2021/05/24 02:37:29;;;;;;;2.27;1.40;;;11.70;79.10;;;;;;5111057;28;20374;-61
2021/05/24 02:39:55;;;;;;;3.83;1.60;;;11.70;78.80;;;;;;5111123;28;20301;-61
2021/05/24 02:42:21;;;;;;;4.97;1.73;;;11.70;78.70;;;;;;5111185;28;20043;-61
2021/05/24 02:44:46;;;;;;;2.27;1.23;;;11.80;78.90;;;;;;5112148;28;20449;-62
2021/05/24 02:47:12;;;;;;;4.23;1.90;;;11.80;79.60;;;;;;5111427;28;20297;-62
2021/05/24 02:49:38;;;;;;;2.47;1.50;;;11.70;79.80;;;;;;5111132;28;20048;-61
2021/05/24 02:52:05;;;;;;;8.70;2.00;;;11.70;82.40;;;;;;5110864;27;20055;-62
2021/05/24 02:54:31;;;;;;;3.97;1.50;;;11.70;83.20;;;;;;5110855;28;20055;-61
2021/05/24 02:56:58;;;;;;;4.97;2.30;;;11.60;83.80;;;;;;5110795;28;20448;-62
2021/05/24 02:59:24;;;;;;;3.60;1.40;;;11.80;84.50;;;;;;5110814;27;20343;-62
2021/05/24 03:01:50;;;;;;;6.83;1.90;;;11.60;84.00;;;;;;5110016;28;20298;-62
2021/05/24 03:04:18;;;;;;;3.57;1.40;;;11.50;84.20;;;;;;5110435;28;20046;-62
2021/05/24 03:06:43;;;;;;;4.60;1.43;;;11.50;84.40;;;;;;5110485;28;20297;-61
2021/05/24 03:09:09;;;;;;;3.30;1.73;;;11.50;84.30;;;;;;5110542;28;20384;-62
2021/05/24 03:11:35;;;;;;;2.87;1.40;;;11.50;83.70;;;;;;5110156;28;20048;-62
2021/05/24 03:14:01;;;;;;;4.10;1.43;;;11.50;83.00;;;;;;5109773;28;20043;-61
2021/05/24 03:16:26;;;;;;;5.17;2.37;;;11.50;82.80;;;;;;5109885;28;20040;-62
2021/05/24 03:18:52;;;;;;;2.73;1.20;;;11.50;82.80;;;;;;5127594;27;20142;-60
2021/05/24 03:21:18;;;;;;;5.80;1.57;;;11.60;81.90;;;;;;5130325;27;20050;-61
2021/05/24 03:23:44;;;;;;;4.23;1.73;;;11.60;82.10;;;;;;5130292;27;20296;-61
2021/05/24 03:26:10;;;;;;;4.73;2.37;;;11.60;82.10;;;;;;5111171;27;20292;-59
2021/05/24 03:28:36;;;;;;;10.80;2.40;;;11.60;81.90;;;;;;5129930;27;20089;-62
2021/05/24 03:31:02;;;;;;;4.70;2.00;;;11.60;81.60;;;;;;5130231;27;20051;-61
2021/05/24 03:33:27;;;;;;;7.07;2.07;;;11.50;82.00;;;;;;5129379;27;20122;-61
2021/05/24 03:35:53;;;;;;;4.47;1.50;;;11.60;80.90;;;;;;5129822;27;20516;-61
2021/05/24 03:38:19;;;;;;;3.37;1.30;;;11.60;81.30;;;;;;5129276;27;20047;-61
2021/05/24 03:40:45;;;;;;;3.13;1.70;;;11.70;81.20;;;;;;5129697;27;20061;-61
2021/05/24 03:43:11;;;;;;;3.47;1.57;;;11.60;81.40;;;;;;5129925;27;20106;-62
2021/05/24 03:45:39;;;;;;;4.80;1.30;;;11.60;81.50;;;;;;5129738;27;20296;-61
2021/05/24 03:48:06;;;;;;;3.33;1.47;;;11.60;81.50;;;;;;5129867;27;20510;-61
2021/05/24 03:50:32;;;;;;;7.23;1.90;;;11.60;81.60;;;;;;5130054;27;20615;-61
2021/05/24 03:52:58;;;;;;;2.23;1.30;;;11.60;81.20;;;;;;5130381;27;20344;-61
2021/05/24 03:55:23;;;;;;;3.37;1.63;;;11.60;81.20;;;;;;5129844;27;20300;-61
2021/05/24 03:57:51;;;;;;;1.90;1.27;;;11.70;81.60;;;;;;5129093;27;20043;-61
2021/05/24 04:00:17;;;;;;;4.63;1.60;;;11.70;81.00;;;;;;5129168;27;20534;-61
2021/05/24 04:02:43;;;;;;;6.63;1.70;;;11.70;81.20;;;;;;5129046;27;20328;-61
2021/05/24 04:07:40;;;;;;;4.77;2.20;;;11.70;82.10;;;;;;5128999;27;20377;-61
2021/05/24 04:10:06;;;;;;;4.60;1.70;;;11.70;82.10;;;;;;5129388;27;20327;-62
2021/05/24 04:12:32;;;;;;;3.33;1.10;;;11.80;81.50;;;;;;5129284;27;20297;-61
2021/05/24 04:14:58;;;;;;;5.80;1.60;;;11.80;81.00;;;;;;5128844;27;20760;-61
2021/05/24 04:17:26;;;;;;;3.53;1.60;;;11.80;81.40;;;;;;5129083;27;20055;-61
2021/05/24 04:19:52;;;;;;;3.97;1.93;;;11.80;81.60;;;;;;5128437;27;20054;-61
2021/05/24 04:22:19;;;;;;;5.47;2.10;;;11.90;82.00;;;;;;5128789;27;20867;-61
2021/05/24 04:24:44;;;;;;;3.80;1.20;;;11.90;80.70;;;;;;5129079;27;20305;-60
2021/05/24 04:27:10;;;;;;;4.13;1.20;;;11.90;80.60;;;;;;5129223;27;20089;-60
2021/05/24 04:29:36;;;;;;;3.23;1.00;;;11.90;80.50;;;;;;5129241;27;20047;-61
2021/05/24 04:32:01;;;;;;;2.43;1.40;;;11.90;80.50;;;;;;5128789;27;20139;-61
2021/05/24 04:34:27;;;;;;;3.03;1.47;;;11.80;80.70;;;;;;5129960;27;20103;-61
2021/05/24 04:36:53;;;;;;;3.07;1.20;;;12.00;81.40;;;;;;5133389;28;20127;-60
2021/05/24 04:39:18;;;;;;;5.43;1.80;;;12.00;80.90;;;;;;5129090;28;20477;-61
2021/05/24 04:41:44;;;;;;;5.50;1.50;;;12.00;81.80;;;;;;5128837;28;20095;-60
2021/05/24 04:44:17;;;;;;;5.43;1.40;;;11.90;87.60;;;;;;5129972;28;20051;-61
2021/05/24 04:46:48;;;;;;;5.90;1.80;;;11.70;89.40;;;;;;5128780;28;20043;-61
2021/05/24 04:49:15;;;;;;;3.10;1.40;;;11.70;91.00;;;;;;5128685;28;20292;-61
2021/05/24 04:51:41;;;;;;;4.53;1.50;;;11.60;90.50;;;;;;5128592;28;20294;-61
2021/05/24 04:54:07;;;;;;;3.97;1.20;;;11.60;90.80;;;;;;5128545;28;20297;-61
2021/05/24 04:56:35;;;;;;;5.07;1.47;;;11.70;91.40;;;;;;5128412;28;20292;-61
2021/05/24 04:59:02;;;;;;;2.33;1.40;;;11.80;90.50;;;;;;5128390;28;20043;-61
2021/05/24 05:01:28;;;;;;;4.57;1.50;;;11.80;90.00;;;;;;5129034;28;20308;-61
2021/05/24 05:03:54;;;;;;;3.40;1.70;;;11.80;88.90;;;;;;5129158;28;20304;-61
2021/05/24 05:06:20;;;;;;;3.13;1.13;;;11.90;87.90;;;;;;5129234;28;20415;-62
2021/05/24 05:08:46;;;;;;;4.47;1.40;;;11.90;87.70;;;;;;5129720;28;20036;-62
2021/05/24 05:11:13;;;;;;;3.13;1.30;;;12.00;87.00;;;;;;5129119;28;20304;-60
2021/05/24 05:13:43;;;;;;;5.10;1.30;;;12.10;88.20;;;;;;5129616;28;20546;-62
2021/05/24 05:16:11;;;;;;;1.83;1.13;;;12.10;87.00;;;;;;5092410;28;20307;-61
2021/05/24 05:18:37;;;;;;;5.07;1.20;;;12.20;86.70;;;;;;5128115;28;20305;-62
2021/05/24 05:21:03;;;;;;;3.30;1.13;;;12.20;85.80;;;;;;5128286;28;20368;-61
2021/05/24 05:23:30;;;;;;;2.57;1.47;;;12.30;86.20;;;;;;5127266;28;20999;-61
2021/05/24 05:25:56;;;;;;;4.67;1.53;;;12.30;85.10;;;;;;5128029;28;20307;-61
2021/05/24 05:28:23;;;;;;;4.23;1.33;;;12.40;85.20;;;;;;5128232;28;20040;-61
2021/05/24 05:30:50;;;;;;;4.00;1.20;;;12.40;85.60;;;;;;5109328;28;20039;-62
2021/05/24 05:33:16;;;;;;;3.07;1.20;;;12.60;84.30;;;;;;5112382;27;20345;-61
2021/05/24 05:35:46;;;;;;;2.40;1.00;;;12.50;83.60;;;;;;5131642;27;20296;-61
2021/05/24 05:38:12;;;;;;;4.33;1.13;;;12.60;83.70;;;;;;5131987;27;20304;-61
2021/05/24 05:40:45;;;;;;;5.83;0.90;;;12.70;82.90;;;;;;5131778;27;20766;-61
2021/05/24 05:43:10;;;;;;;3.30;0.90;;;12.70;82.10;;;;;;5132642;27;20296;-61
2021/05/24 05:45:36;;;;;;;2.53;1.00;;;12.90;82.00;;;;;;5132356;27;20373;-61
2021/05/24 05:48:02;;;;;;;3.60;1.10;;;12.90;81.80;;;;;;5132033;27;20126;-61
2021/05/24 05:50:28;;;;;;;2.20;0.90;;;13.00;81.00;;;;;;5132419;27;20430;-61
2021/05/24 05:52:54;;;;;;;2.73;1.23;;;13.10;80.10;;;;;;5131956;27;20047;-61
2021/05/24 05:55:19;;;;;;;5.20;1.30;;;13.30;78.30;;;;;;5132294;27;20308;-61
2021/05/24 05:57:45;;;;;;;2.40;1.17;;;13.40;78.30;;;;;;5113488;27;20035;-61
2021/05/24 06:00:11;;;;;;;3.17;0.90;;;13.60;77.30;;;;;;5132337;27;20377;-60
2021/05/24 06:02:37;;;;;;;3.17;1.10;;;13.60;76.90;;;;;;5115066;27;20058;-62
2021/05/24 06:05:03;;;;;;;6.77;1.20;;;13.70;75.30;;;;;;5133359;27;20288;-61
2021/05/24 06:07:28;;;;;;;2.40;0.80;;;13.70;75.30;;;;;;5132861;27;20043;-62
2021/05/24 06:09:54;;;;;;;4.63;1.20;;;13.90;75.40;;;;;;5133926;27;20126;-61
2021/05/24 06:12:20;;;;;;;2.37;0.83;;;13.90;75.00;;;;;;5132956;27;20386;-62
2021/05/24 06:14:46;;;;;;;3.40;1.13;;;14.00;74.10;;;;;;5133125;27;20393;-61
2021/05/24 06:17:12;;;;;;;3.53;1.20;;;14.00;73.90;;;;;;5115160;27;20462;-62
2021/05/24 06:19:37;;;;;;;4.13;0.90;;;14.00;73.00;;;;;;5131877;27;20479;-61
2021/05/24 06:22:03;;;;;;;2.27;1.07;;;14.00;73.30;;;;;;5132450;27;20374;-62
2021/05/24 06:24:30;;;;;;;2.47;1.00;;;14.10;73.40;;;;;;5133228;27;20751;-62
2021/05/24 06:26:56;;;;;;;2.77;0.93;;;14.10;71.90;;;;;;5132805;27;20315;-61
2021/05/24 06:29:23;;;;;;;5.07;1.00;;;14.20;72.90;;;;;;5133318;27;20063;-62
2021/05/24 06:31:54;;;;;;;2.73;0.90;;;14.20;72.60;;;;;;5131981;27;20130;-61
2021/05/24 06:34:20;;;;;;;2.00;1.20;;;14.20;73.80;;;;;;5132609;27;20292;-62
2021/05/24 06:36:45;;;;;;;3.47;1.07;;;14.30;73.10;;;;;;5132197;27;20303;-61
2021/05/24 06:39:12;;;;;;;3.77;1.40;;;14.40;72.90;;;;;;5132430;27;20634;-62
2021/05/24 06:41:38;;;;;;;2.93;1.10;;;14.50;72.40;;;;;;5132341;27;20043;-62
2021/05/24 06:44:05;;;;;;;1.67;1.00;;;14.70;72.40;;;;;;5132463;27;20296;-62
2021/05/24 06:46:31;;;;;;;3.27;1.10;;;14.70;71.30;;;;;;5132968;27;20297;-62
2021/05/24 06:48:57;;;;;;;4.33;1.00;;;14.80;70.20;;;;;;5113370;27;20338;-61
2021/05/24 06:51:22;;;;;;;4.73;1.57;;;14.70;71.10;;;;;;5131695;27;20047;-61
2021/05/24 06:53:48;;;;;;;2.03;1.13;;;14.90;70.30;;;;;;5131702;27;20054;-60
2021/05/24 06:56:14;;;;;;;2.70;1.00;;;14.90;71.00;;;;;;5132909;27;20039;-61
2021/05/24 06:58:40;;;;;;;1.90;0.80;;;14.90;70.80;;;;;;5133594;27;20339;-61
2021/05/24 07:01:06;;;;;;;3.87;0.90;;;15.00;70.00;;;;;;5133091;27;20103;-61
2021/05/24 07:03:32;;;;;;;2.33;1.23;;;15.00;69.20;;;;;;5131090;27;20482;-61
2021/05/24 07:05:57;;;;;;;3.17;1.30;;;15.00;68.80;;;;;;5130546;27;20051;-61
2021/05/24 07:08:23;;;;;;;3.53;1.47;;;15.10;68.50;;;;;;5132009;27;20058;-61
2021/05/24 07:10:50;;;;;;;3.57;1.37;;;15.20;68.40;;;;;;5133392;27;20448;-61
2021/05/24 07:13:16;;;;;;;2.97;1.20;;;15.30;67.80;;;;;;5113218;27;20288;-62
2021/05/24 07:15:43;;;;;;;6.03;1.30;;;15.50;67.80;;;;;;5131487;27;20299;-61
2021/05/24 07:18:09;;;;;;;3.43;1.17;;;15.60;67.20;;;;;;5130759;27;20314;-61
2021/05/24 07:20:35;;;;;;;3.13;1.10;;;15.60;67.50;;;;;;5131459;27;20395;-62
2021/05/24 07:23:01;;;;;;;4.43;1.10;;;15.80;67.60;;;;;;5131066;27;20781;-61
2021/05/24 07:25:27;;;;;;;3.40;1.07;;;15.70;67.30;;;;;;5131171;27;20300;-62
2021/05/24 07:27:53;;;;;;;4.83;1.33;;;15.60;65.80;;;;;;5131079;27;20333;-62
2021/05/24 07:30:19;;;;;;;6.50;1.33;;;15.80;65.30;;;;;;5130509;27;20413;-61
2021/05/24 07:32:45;;;;;;;4.50;1.57;;;15.70;65.50;;;;;;5130491;27;20530;-62
2021/05/24 07:35:12;;;;;;;3.23;1.27;;;15.70;65.40;;;;;;5129965;27;20095;-62
2021/05/24 07:37:38;;;;;;;3.87;1.37;;;15.80;65.60;;;;;;5130398;27;20349;-62
2021/05/24 07:40:06;;;;;;;4.57;1.20;;;15.70;64.90;;;;;;5130142;27;20313;-62
2021/05/24 07:42:31;;;;;;;4.27;1.20;;;15.60;64.80;;;;;;5130036;27;20363;-60
2021/05/24 07:44:57;;;;;;;5.40;1.20;;;15.60;64.40;;;;;;5130370;27;20333;-61
2021/05/24 07:47:23;;;;;;;4.23;1.23;;;15.50;64.30;;;;;;5130488;27;20054;-61
2021/05/24 07:49:48;;;;;;;4.53;1.47;;;15.50;65.20;;;;;;5130039;27;20043;-61
2021/05/24 07:52:14;;;;;;;2.50;0.90;;;15.40;65.90;;;;;;5130588;27;20046;-61
2021/05/24 07:54:40;;;;;;;4.07;1.20;;;15.40;65.10;;;;;;5132024;27;20043;-61
2021/05/24 07:57:06;;;;;;;3.60;1.10;;;15.40;65.30;;;;;;5130681;27;20352;-61
2021/05/24 07:59:33;;;;;;;3.17;1.00;;;15.50;65.10;;;;;;5131105;27;20043;-61
2021/05/24 08:02:03;;;;;;;2.90;1.40;;;15.50;64.60;;;;;;5131275;27;20453;-61
2021/05/24 08:04:29;;;;;;;1.80;0.80;;;15.60;64.00;;;;;;5131297;27;20307;-61
2021/05/24 08:06:55;;;;;;;2.73;1.00;;;15.60;63.20;;;;;;5130841;27;20303;-61
2021/05/24 08:09:21;;;;;;;3.17;0.90;;;15.70;63.30;;;;;;5112911;27;20296;-61
2021/05/24 08:11:47;;;;;;;1.13;0.70;;;15.70;63.50;;;;;;5132548;27;20112;-61
2021/05/24 08:14:15;;;;;;;2.63;0.83;;;15.70;63.60;;;;;;5135149;27;20047;-61
2021/05/24 08:16:43;;;;;;;3.77;1.10;;;15.70;63.10;;;;;;5133106;27;20073;-61
2021/05/24 08:19:10;;;;;;;3.63;0.90;;;15.70;62.80;;;;;;5131439;27;20340;-61
2021/05/24 08:21:35;;;;;;;4.40;1.10;;;15.50;63.10;;;;;;5130626;27;20407;-60
2021/05/24 08:24:02;;;;;;;2.90;0.90;;;15.60;63.00;;;;;;5131882;27;20201;-61
2021/05/24 08:26:28;;;;;;;3.43;0.93;;;15.70;63.00;;;;;;5112240;27;20047;-60
2021/05/24 08:28:54;;;;;;;1.93;1.00;;;15.70;62.20;;;;;;5130921;27;20356;-61
2021/05/24 08:31:20;;;;;;;2.83;1.07;;;15.70;62.20;;;;;;5130500;27;20091;-61
2021/05/24 08:33:45;;;;;;;2.90;0.80;;;15.70;62.80;;;;;;5129611;27;20087;-61
2021/05/24 08:36:11;;;;;;;4.17;0.90;;;15.70;61.90;;;;;;5130365;27;20046;-61
2021/05/24 08:38:37;;;;;;;2.47;1.10;;;15.90;62.10;;;;;;5129789;28;20042;-61
2021/05/24 08:41:07;;;;;;;4.83;0.97;;;15.90;60.20;;;;;;5130660;28;20091;-61
2021/05/24 08:43:35;;;;;;;2.80;1.07;;;15.90;60.50;;;;;;5132739;28;20035;-60
2021/05/24 08:46:01;;;;;;;2.90;0.80;;;16.00;59.60;;;;;;5129193;28;20297;-61
2021/05/24 08:48:27;;;;;;;2.73;0.90;;;16.10;58.90;;;;;;5128899;28;20304;-61
2021/05/24 08:50:53;;;;;;;3.67;1.00;;;16.30;58.70;;;;;;5130061;28;20095;-61
2021/05/24 08:53:20;;;;;;;2.17;0.83;;;16.60;58.20;;;;;;5130344;28;20078;-62
2021/05/24 08:55:46;;;;;;;4.97;1.23;;;16.80;58.20;;;;;;5129538;28;20115;-62
2021/05/24 08:58:13;;;;;;;2.83;0.63;;;16.90;57.80;;;;;;5129697;28;20177;-62
2021/05/24 09:00:38;;;;;;;2.33;0.77;;;16.90;57.50;;;;;;5129452;28;20039;-62
2021/05/24 09:03:14;;;;;;;7.83;1.23;;;16.80;56.50;;;;;;5129826;28;20051;-61
2021/05/24 09:05:40;;;;;;;1.47;0.80;;;16.50;60.30;;;;;;5130546;28;20045;-61
2021/05/24 09:08:06;;;;;;;2.70;1.00;;;16.40;62.90;;;;;;5135528;27;20043;-62
2021/05/24 09:10:35;;;;;;;1.47;0.73;;;16.30;64.70;;;;;;5118308;27;20051;-62
2021/05/24 09:13:08;;;;;;;2.20;1.00;;;16.20;66.10;;;;;;5137109;27;20115;-62
2021/05/24 09:15:36;;;;;;;2.45;0.82;;;15.90;66.60;;;;;;5136546;27;20496;-62
2021/05/24 09:18:03;;;;;;;5.17;0.93;;;15.70;67.00;;;;;;5115077;28;20059;-62
2021/05/24 09:20:37;;;;;;;3.53;1.07;;;15.50;68.60;;;;;;5118118;28;20106;-62
2021/05/24 09:23:21;;;;;;;2.47;1.17;;;15.40;69.00;;;;;;5113955;28;20035;-61
2021/05/24 09:26:08;;;;;;;4.25;1.30;;;15.10;70.00;;;;;;5113232;28;20074;-61
2021/05/24 09:28:48;;;;;;;2.23;1.00;;;14.90;71.60;;;;;;5113581;28;20135;-61
2021/05/24 09:31:16;;;;;;;2.47;1.10;;;14.90;72.40;;;;;;5114012;28;20047;-61
2021/05/24 09:33:46;;;;;;;2.60;1.00;;;14.70;73.50;;;;;;5114518;28;20299;-61
2021/05/24 09:36:13;;;;;;;2.53;1.40;;;14.80;73.60;;;;;;5113486;28;20128;-61
2021/05/24 09:38:47;;;;;;;2.03;1.10;;;14.90;74.10;;;;;;5113408;28;21034;-61
2021/05/24 09:41:16;;;;;;;2.33;1.10;;;15.10;74.40;;;;;;5112543;28;20304;-61
2021/05/24 09:43:45;;;;;;;3.33;1.63;;;15.20;74.80;;;;;;5112873;28;20709;-61
2021/05/24 09:46:22;;;;;;;1.90;1.40;;;15.00;74.20;;;;;;5117565;28;20428;-60
2021/05/24 09:49:01;;;;;;;2.60;1.50;;;15.10;74.80;;;;;;5119212;28;20289;-60
2021/05/24 09:51:31;;;;;;;2.77;1.50;;;14.90;75.70;;;;;;5120027;28;20297;-60
2021/05/24 09:54:10;;;;;;;4.20;1.50;;;14.90;76.20;;;;;;5124497;28;20312;-60
2021/05/24 09:56:37;;;;;;;2.27;1.30;;;14.80;78.10;;;;;;5119513;28;21022;-60
2021/05/24 09:59:13;;;;;;;4.70;1.30;;;14.50;78.90;;;;;;5117313;28;20305;-60
2021/05/24 10:01:46;;;;;;;5.13;1.10;;;14.40;80.60;;;;;;5112472;28;20693;-60
2021/05/24 10:04:14;;;;;;;3.97;1.17;;;14.50;82.40;;;;;;5112477;28;20297;-59
2021/05/24 10:06:40;;;;;;;2.13;1.10;;;14.70;83.60;;;;;;5112432;28;20362;-60
2021/05/24 10:09:08;;;;;;;7.20;1.30;;;15.00;82.40;;;;;;5113999;28;20325;-60
2021/05/24 10:11:39;;;;;;;2.67;1.40;;;15.10;81.80;;;;;;5113497;28;20301;-62
2021/05/24 10:14:06;;;;;;;2.93;1.43;;;15.00;79.30;;;;;;5112162;28;20886;-62
2021/05/24 10:16:36;;;;;;;3.33;1.70;;;15.40;79.10;;;;;;5120250;28;20404;-62
2021/05/24 10:19:04;;;;;;;2.63;1.30;;;15.70;79.00;;;;;;5142175;27;20312;-62
2021/05/24 10:21:30;;;;;;;2.67;1.40;;;15.70;76.80;;;;;;5145012;27;20296;-62
2021/05/24 10:23:55;;;;;;;3.07;1.13;;;15.70;77.30;;;;;;5142046;27;20318;-62
2021/05/24 10:26:23;;;;;;;2.57;1.20;;;15.70;77.70;;;;;;5137596;27;20398;-61
2021/05/24 10:28:50;;;;;;;1.47;1.10;;;15.70;78.80;;;;;;5136294;27;20038;-61
2021/05/24 10:31:27;;;;;;;4.73;1.30;;;15.70;79.90;;;;;;5136337;27;20300;-61
2021/05/24 10:33:53;;;;;;;3.93;1.30;;;15.50;81.70;;;;;;5139841;27;20342;-61
2021/05/24 10:36:22;;;;;;;2.63;1.23;;;15.30;81.60;;;;;;5138092;27;20043;-60
2021/05/24 10:39:20;;;;;;;2.77;1.23;;;15.30;81.40;;;;;;5134701;27;20399;-61
2021/05/24 10:41:47;;;;;;;5.47;1.67;;;15.60;84.70;;;;;;5119695;27;20370;-61
2021/05/24 10:44:22;;;;;;;3.37;1.40;;;15.70;83.40;;;;;;5132857;27;20293;-61
2021/05/24 10:46:50;;;;;;;4.70;1.50;;;15.80;80.10;;;;;;5132415;27;20315;-61
2021/05/24 10:49:26;;;;;;;2.93;1.50;;;15.80;80.60;;;;;;5132404;27;20047;-60
2021/05/24 10:52:05;;;;;;;8.20;1.80;;;15.70;81.00;;;;;;5132644;27;20289;-61
2021/05/24 10:54:40;;;;;;;3.13;1.70;;;15.70;80.80;;;;;;5132073;27;20347;-61
2021/05/24 10:57:12;;;;;;;3.87;1.50;;;15.60;81.20;;;;;;5131986;27;20051;-60
2021/05/24 11:02:27;;;;;;;3.13;1.20;;;15.70;78.10;;;;;;5132147;27;20376;-61
2021/05/24 11:04:57;;;;;;;2.80;1.13;;;15.90;77.00;;;;;;5131902;27;20305;-61
2021/05/24 11:07:31;;;;;;;2.47;1.30;;;15.80;77.40;;;;;;5131771;27;20051;-61
2021/05/24 11:10:20;;;;;;;2.20;1.27;;;15.90;76.40;;;;;;5132071;27;20289;-61
2021/05/24 11:12:51;;;;;;;4.23;1.27;;;15.80;81.10;;;;;;5131590;27;20121;-60
2021/05/24 11:15:18;;;;;;;4.83;1.30;;;15.90;80.10;;;;;;5131689;27;20341;-61
2021/05/24 11:18:05;;;;;;;4.27;1.30;;;16.00;77.80;;;;;;5131833;27;20802;-61
2021/05/24 11:20:46;;;;;;;2.93;1.30;;;16.20;78.60;;;;;;5130219;27;20146;-61
2021/05/24 11:26:16;;;;;;;4.60;1.40;;;16.10;79.50;;;;;;5130556;27;20071;-61
2021/05/24 11:28:50;;;;;;;2.35;1.40;;;15.70;82.40;;;;;;5132193;27;20421;-61
2021/05/24 11:31:19;;;;;;;3.90;1.20;;;15.90;81.20;;;;;;5113022;27;20141;-62
2021/05/24 11:33:49;;;;;;;3.23;1.30;;;15.80;81.60;;;;;;5131886;27;20049;-61
2021/05/24 11:36:34;;;;;;;4.43;1.67;;;15.80;83.30;;;;;;5133899;27;20066;-64
2021/05/24 11:39:28;;;;;;;7.17;1.73;;;15.60;82.00;;;;;;5134396;27;20043;-61
2021/05/24 11:42:11;;;;;;;1.83;1.50;;;15.50;82.90;;;;;;5134806;27;20069;-60
2021/05/24 11:44:42;;;;;;;1.50;1.07;;;15.60;80.10;;;;;;5131849;27;20763;-62
2021/05/24 11:47:18;;;;;;;3.60;1.37;;;15.80;81.00;;;;;;5130198;27;20057;-61
2021/05/24 11:49:46;;;;;;;3.77;1.30;;;15.70;81.10;;;;;;5130562;27;20043;-62
2021/05/24 11:52:17;;;;;;;2.30;1.33;;;15.70;79.40;;;;;;5112243;27;20546;-62
2021/05/24 11:54:48;;;;;;;2.77;1.30;;;15.70;80.40;;;;;;5129557;27;20387;-62
2021/05/24 11:57:14;;;;;;;1.77;1.27;;;15.70;79.10;;;;;;5128430;27;20300;-62
2021/05/24 11:59:40;;;;;;;4.73;1.47;;;15.70;81.00;;;;;;5127832;27;20047;-61
2021/05/24 12:02:07;;;;;;;3.80;1.40;;;15.60;81.30;;;;;;5128118;27;20049;-62
2021/05/24 12:04:45;;;;;;;3.73;1.43;;;15.40;82.50;;;;;;5128118;27;20421;-61
2021/05/24 12:07:14;;;;;;;2.90;1.33;;;15.40;82.90;;;;;;5127816;27;20073;-62
2021/05/24 12:09:46;;;;;;;2.17;1.03;;;15.30;83.90;;;;;;5128384;27;20058;-62
2021/05/24 12:12:16;;;;;;;2.30;1.10;;;15.20;82.00;;;;;;5128072;27;20389;-61
2021/05/24 12:14:46;;;;;;;3.13;1.40;;;14.90;84.00;;;;;;5126396;27;20768;-61
2021/05/24 12:17:13;;;;;;;1.87;1.43;;;14.80;86.40;;;;;;5128259;27;20396;-62
2021/05/24 12:19:40;;;;;;;3.33;1.13;;;14.70;86.90;;;;;;5128225;27;20383;-62
2021/05/24 12:22:07;;;;;;;1.80;1.27;;;14.60;88.90;;;;;;5128082;27;20787;-62
2021/05/24 12:24:35;;;;;;;2.77;1.80;;;14.50;91.90;;;;;;5127895;27;20872;-63
2021/05/24 12:27:01;;;;;;;3.07;1.40;;;14.60;92.80;;;;;;5127785;27;20296;-61
2021/05/24 12:29:30;;;;;;;4.90;1.87;;;14.60;92.00;;;;;;5128145;27;20292;-62
2021/05/24 12:31:59;;;;;;;3.03;1.47;;;14.60;92.60;;;;;;5127938;27;20292;-62
2021/05/24 12:34:31;;;;;;;1.50;1.27;;;14.70;91.90;;;;;;5127740;27;20725;-62
2021/05/24 12:36:58;;;;;;;1.83;1.40;;;14.70;93.80;;;;;;5109223;28;20296;-62
2021/05/24 12:39:28;;;;;;;2.90;1.77;;;14.50;93.50;;;;;;5127196;27;20684;-62
2021/05/24 12:41:57;;;;;;;2.70;1.70;;;14.50;94.40;;;;;;5109171;28;20329;-63
2021/05/24 12:44:24;;;;;;;3.93;1.60;;;14.50;95.50;;;;;;5128591;28;20612;-61
2021/05/24 12:46:57;;;;;;;3.80;1.60;;;14.60;94.50;;;;;;5129773;28;20292;-62
2021/05/24 12:49:39;;;;;;;2.87;1.80;;;14.60;96.40;;;;;;5132864;28;20321;-62
2021/05/24 12:52:06;;;;;;;3.73;1.87;;;14.70;94.70;;;;;;5129188;28;20775;-62
2021/05/24 12:55:08;;;;;;;3.83;1.83;;;14.50;95.60;;;;;;5129636;28;20288;-62
2021/05/24 12:57:34;;;;;;;3.83;2.20;;;14.70;97.50;;;;;;5129070;28;20331;-61
2021/05/24 12:59:59;;;;;;;2.37;1.73;;;14.70;96.20;;;;;;5128819;28;20348;-62